Terminal Aerodrome Forecast
Issued by NWS

Home | Current Version | Previous Version | Text Only | Print | Product List | Glossary On
Versions: 1 2 3 4 5 6 7 8 9 10 11 12 13 14 15
697
FTUS42 KMLB 171121
TAFSFB
TAF
KSFB 171121Z 1712/1812 00000KT P6SM FEW004
      TEMPO 1712/1713 3SM BR SCT003
     FM171400 15006KT P6SM SCT040
     FM180000 13004KT P6SM FEW035
     FM180600 00000KT P6SM FEW002
      TEMPO 1808/1812 3/4SM BR SCT002=

USA.gov is the U.S. government's official web portal to all federal, state and local government web resources and services.